Time;durP1;ratioP1;P1;durP2;ratioP2;P2;SDS_P1;SDS_P2;PMS_P1;PMS_P2;Temp;Humidity;BMP_temperature;BMP_pressure;BME280_temperature;BME280_humidity;BME280_pressure;Samples;Min_cycle;Max_cycle;Signal;HPM_P1;HPM_P2
2021/01/26 00:02:25;;;;;;;12.93;7.77;;;1.40;89.50;;;;;;4991981;28;20308;-79
2021/01/26 00:04:53;;;;;;;11.60;7.50;;;1.40;89.60;;;;;;4980403;28;20671;-81
2021/01/26 00:07:20;;;;;;;12.13;8.00;;;1.40;89.10;;;;;;4987982;28;20211;-81
2021/01/26 00:09:49;;;;;;;16.90;8.60;;;1.40;89.60;;;;;;4994512;28;20386;-80
2021/01/26 00:12:16;;;;;;;15.80;8.63;;;1.40;89.60;;;;;;4992028;28;20220;-79
2021/01/26 00:14:44;;;;;;;12.47;8.03;;;1.50;89.60;;;;;;5005199;28;20206;-80
2021/01/26 00:17:11;;;;;;;15.57;9.40;;;1.40;89.60;;;;;;4986827;28;20506;-81
2021/01/26 00:19:39;;;;;;;14.53;9.10;;;1.40;89.60;;;;;;4995795;28;20337;-79
2021/01/26 00:22:07;;;;;;;15.37;9.27;;;1.40;89.70;;;;;;4994660;28;20259;-79
2021/01/26 00:24:35;;;;;;;14.60;8.87;;;1.40;89.90;;;;;;4992989;28;20208;-81
2021/01/26 00:27:05;;;;;;;16.93;10.00;;;1.30;89.80;;;;;;4979717;28;20283;-78
2021/01/26 00:29:32;;;;;;;14.70;9.73;;;1.40;90.00;;;;;;4986268;28;20370;-78
2021/01/26 00:32:00;;;;;;;15.30;9.87;;;1.40;90.00;;;;;;4971617;28;20213;-81
2021/01/26 00:34:27;;;;;;;15.33;9.70;;;1.40;90.10;;;;;;4974192;28;20227;-80
2021/01/26 00:36:55;;;;;;;20.00;11.43;;;1.40;90.00;;;;;;4966436;28;21021;-81
2021/01/26 00:39:23;;;;;;;17.40;11.03;;;1.30;90.10;;;;;;4973616;28;20698;-80
2021/01/26 00:41:51;;;;;;;21.87;12.03;;;1.30;90.30;;;;;;4976169;28;20204;-80
2021/01/26 00:44:19;;;;;;;21.57;12.83;;;1.30;90.50;;;;;;4971405;28;20226;-79
2021/01/26 00:46:47;;;;;;;21.70;12.90;;;1.30;90.60;;;;;;4962952;28;20897;-81
2021/01/26 00:49:14;;;;;;;24.63;13.50;;;1.30;90.70;;;;;;4974041;28;20192;-80
2021/01/26 00:51:42;;;;;;;24.50;13.53;;;1.30;90.90;;;;;;4970557;28;20204;-81
2021/01/26 00:54:09;;;;;;;24.97;13.93;;;1.40;91.00;;;;;;4957168;28;20216;-79
2021/01/26 00:56:37;;;;;;;26.63;14.90;;;1.30;91.00;;;;;;4970721;28;20936;-81
2021/01/26 00:59:04;;;;;;;23.70;14.23;;;1.30;91.10;;;;;;4965850;28;20684;-81
2021/01/26 01:01:33;;;;;;;29.57;16.03;;;1.30;91.10;;;;;;4972045;28;20269;-81
2021/01/26 01:04:01;;;;;;;25.73;14.30;;;1.30;91.20;;;;;;4970475;28;20291;-81
2021/01/26 01:06:28;;;;;;;27.43;15.30;;;1.30;91.30;;;;;;4966477;28;20272;-81
2021/01/26 01:08:56;;;;;;;25.87;15.07;;;1.30;91.40;;;;;;4974666;28;20200;-81
2021/01/26 01:11:24;;;;;;;27.43;15.50;;;1.40;91.30;;;;;;4970526;28;20232;-81
2021/01/26 01:13:51;;;;;;;30.67;17.23;;;1.40;91.30;;;;;;4971837;28;20326;-81
2021/01/26 01:16:19;;;;;;;26.77;15.97;;;1.50;91.30;;;;;;4972800;28;20294;-79
2021/01/26 01:18:48;;;;;;;30.80;16.43;;;1.40;91.30;;;;;;4972534;28;20823;-81
2021/01/26 01:21:15;;;;;;;31.67;16.40;;;1.40;91.30;;;;;;4984861;28;20470;-79
2021/01/26 01:23:43;;;;;;;30.77;17.00;;;1.40;91.40;;;;;;4971550;28;20210;-81
2021/01/26 01:26:10;;;;;;;36.03;17.67;;;1.40;91.40;;;;;;4965180;28;20205;-80
2021/01/26 01:28:38;;;;;;;32.40;17.30;;;1.40;91.40;;;;;;4979583;28;20216;-81
2021/01/26 01:31:06;;;;;;;30.77;16.27;;;1.40;91.50;;;;;;4981442;28;20315;-80
2021/01/26 01:33:33;;;;;;;31.63;17.40;;;1.40;91.50;;;;;;4976126;28;20593;-80
2021/01/26 01:36:02;;;;;;;36.37;18.03;;;1.40;91.70;;;;;;4972315;28;20706;-82
2021/01/26 01:38:30;;;;;;;33.57;17.07;;;1.30;91.60;;;;;;4969455;28;20210;-78
2021/01/26 01:40:57;;;;;;;30.50;16.47;;;1.40;91.60;;;;;;4974925;28;20204;-81
2021/01/26 01:43:25;;;;;;;27.07;16.67;;;1.40;91.70;;;;;;4967726;28;20303;-81
2021/01/26 01:45:53;;;;;;;34.07;18.50;;;1.40;91.60;;;;;;4962784;28;20216;-79
2021/01/26 01:48:24;;;;;;;34.20;17.30;;;1.30;91.50;;;;;;4976446;28;20204;-82
2021/01/26 01:50:55;;;;;;;33.90;17.37;;;1.40;91.50;;;;;;4982027;28;20196;-82
2021/01/26 01:53:29;;;;;;;30.83;16.83;;;1.50;91.60;;;;;;4981168;28;20304;-81
2021/01/26 01:56:03;;;;;;;34.80;17.60;;;1.40;91.70;;;;;;4983948;28;20223;-80
2021/01/26 01:58:37;;;;;;;29.30;17.10;;;1.20;91.70;;;;;;4967678;28;20592;-80
2021/01/26 02:01:11;;;;;;;30.30;16.77;;;1.30;91.70;;;;;;4959775;28;20568;-81
2021/01/26 02:03:44;;;;;;;35.03;17.00;;;1.40;91.70;;;;;;4970209;28;20212;-79
2021/01/26 02:06:12;;;;;;;30.07;17.40;;;1.40;91.70;;;;;;4965299;28;20532;-82
2021/01/26 02:08:50;;;;;;;32.33;17.23;;;1.40;91.50;;;;;;4975637;28;20535;-81
2021/01/26 02:11:19;;;;;;;29.97;15.17;;;1.40;91.60;;;;;;4965218;28;20431;-80
2021/01/26 02:13:47;;;;;;;29.20;17.43;;;1.40;91.70;;;;;;4975850;28;20212;-82
2021/01/26 02:16:27;;;;;;;34.10;18.57;;;1.40;91.60;;;;;;4975246;28;20819;-81
2021/01/26 02:19:16;;;;;;;30.80;16.27;;;1.40;91.70;;;;;;4977160;28;20211;-80
2021/01/26 02:22:25;;;;;;;31.60;16.77;;;1.40;91.60;;;;;;4973345;28;20647;-80
2021/01/26 02:25:21;;;;;;;31.53;18.37;;;1.40;91.50;;;;;;4932918;28;20216;-80
2021/01/26 02:28:28;;;;;;;31.90;17.20;;;1.40;91.40;;;;;;4980422;28;20207;-80
2021/01/26 02:31:36;;;;;;;31.53;17.03;;;1.40;91.50;;;;;;4970565;28;20199;-79
2021/01/26 02:34:46;;;;;;;31.90;17.23;;;1.40;91.50;;;;;;4967573;28;20539;-80
2021/01/26 02:38:11;;;;;;;29.87;16.97;;;1.40;91.60;;;;;;4958138;28;20242;-80
2021/01/26 02:40:46;;;;;;;30.60;17.37;;;1.40;91.50;;;;;;4924678;29;20646;-80
2021/01/26 02:43:44;;;;;;;30.30;17.40;;;1.40;91.40;;;;;;4926679;29;20735;-81
2021/01/26 02:46:20;;;;;;;31.30;16.47;;;1.40;91.50;;;;;;4910107;29;20309;-81
2021/01/26 02:49:00;;;;;;;34.00;18.53;;;1.40;91.50;;;;;;4931385;28;20209;-82
2021/01/26 02:51:38;;;;;;;32.03;17.87;;;1.40;91.50;;;;;;4914674;28;20272;-81
2021/01/26 02:54:12;;;;;;;32.43;17.37;;;1.40;91.50;;;;;;4926688;28;20201;-80
2021/01/26 02:56:46;;;;;;;37.13;18.13;;;1.50;91.60;;;;;;4923829;29;20229;-77
2021/01/26 02:59:25;;;;;;;30.33;17.53;;;1.40;91.70;;;;;;4919354;28;20215;-80
2021/01/26 03:01:59;;;;;;;34.20;18.07;;;1.50;91.60;;;;;;4934799;28;20206;-80
2021/01/26 03:04:35;;;;;;;30.67;16.47;;;1.40;91.60;;;;;;4922604;28;20231;-80
2021/01/26 03:07:04;;;;;;;29.67;17.03;;;1.40;91.60;;;;;;4932245;28;20205;-78
2021/01/26 03:09:35;;;;;;;31.03;17.57;;;1.40;91.50;;;;;;4920488;29;20202;-80
2021/01/26 03:12:09;;;;;;;26.13;16.30;;;1.40;91.50;;;;;;4963211;28;20829;-80
2021/01/26 03:14:41;;;;;;;31.63;18.27;;;1.50;91.50;;;;;;4968561;28;20232;-80
2021/01/26 03:17:15;;;;;;;30.17;17.00;;;1.50;91.50;;;;;;4954916;28;20244;-80
2021/01/26 03:19:48;;;;;;;30.83;17.23;;;1.40;91.60;;;;;;4991325;28;20295;-80
2021/01/26 03:22:17;;;;;;;33.93;18.17;;;1.40;91.70;;;;;;4975307;28;20236;-81
2021/01/26 03:24:49;;;;;;;30.63;17.73;;;1.40;91.70;;;;;;4970775;28;20208;-79
2021/01/26 03:27:22;;;;;;;30.93;17.13;;;1.40;91.70;;;;;;4972245;28;20204;-79
2021/01/26 03:29:54;;;;;;;28.80;17.83;;;1.40;91.60;;;;;;4964280;28;20674;-81
2021/01/26 03:32:27;;;;;;;31.50;17.47;;;1.40;91.60;;;;;;4977108;28;20467;-81
2021/01/26 03:34:55;;;;;;;32.40;17.60;;;1.30;91.70;;;;;;4978590;28;20207;-80
2021/01/26 03:37:22;;;;;;;29.50;17.57;;;1.40;91.60;;;;;;4966975;28;20723;-81
2021/01/26 03:39:52;;;;;;;31.37;17.43;;;1.40;91.50;;;;;;4980114;28;20251;-79
2021/01/26 03:42:21;;;;;;;31.43;17.73;;;1.50;91.30;;;;;;4966305;28;20227;-81
2021/01/26 03:44:52;;;;;;;26.67;15.37;;;1.50;91.20;;;;;;4965478;28;20295;-80
2021/01/26 03:47:29;;;;;;;29.10;15.80;;;1.50;91.20;;;;;;4970711;28;20223;-82
2021/01/26 03:50:29;;;;;;;28.40;16.63;;;1.50;91.30;;;;;;4965525;28;20208;-80
2021/01/26 03:53:54;;;;;;;30.33;16.53;;;1.50;91.30;;;;;;4979928;28;20283;-79
2021/01/26 03:56:34;;;;;;;22.97;12.13;;;1.50;91.40;;;;;;4968870;28;20290;-78
2021/01/26 03:59:13;;;;;;;28.10;16.87;;;1.50;91.40;;;;;;4970544;28;20437;-79
2021/01/26 04:01:46;;;;;;;29.93;16.53;;;1.50;91.30;;;;;;4968692;28;20249;-80
2021/01/26 04:04:20;;;;;;;30.87;16.57;;;1.50;91.30;;;;;;4971368;28;20199;-78
2021/01/26 04:06:51;;;;;;;29.70;16.33;;;1.50;91.30;;;;;;4982509;28;20323;-79
2021/01/26 04:09:22;;;;;;;22.33;13.87;;;1.50;91.40;;;;;;4980177;28;20731;-79
2021/01/26 04:11:56;;;;;;;30.50;16.57;;;1.50;91.40;;;;;;4957257;28;20200;-80
2021/01/26 04:14:29;;;;;;;30.63;17.70;;;1.50;91.30;;;;;;4976902;28;20211;-82
2021/01/26 04:17:01;;;;;;;31.03;16.70;;;1.50;91.20;;;;;;4975203;28;20224;-79
2021/01/26 04:19:32;;;;;;;27.87;15.87;;;1.50;91.30;;;;;;4977709;28;20990;-81
2021/01/26 04:22:01;;;;;;;28.70;16.67;;;1.40;91.40;;;;;;4977412;28;20200;-81
2021/01/26 04:24:32;;;;;;;31.03;16.50;;;1.40;91.40;;;;;;4970637;28;20208;-82
2021/01/26 04:27:01;;;;;;;29.93;16.37;;;1.40;91.50;;;;;;4980944;28;20707;-81
2021/01/26 04:29:30;;;;;;;27.93;16.17;;;1.40;91.50;;;;;;4977032;28;20345;-81
2021/01/26 04:31:58;;;;;;;27.93;16.13;;;1.40;91.50;;;;;;4978520;28;20212;-79
2021/01/26 04:34:26;;;;;;;23.87;13.07;;;1.50;91.50;;;;;;4983686;28;20223;-82
2021/01/26 04:36:53;;;;;;;28.27;15.70;;;1.40;91.30;;;;;;4964773;28;20225;-80
2021/01/26 04:39:21;;;;;;;24.60;14.50;;;1.40;91.30;;;;;;4969155;28;20536;-79
2021/01/26 04:41:53;;;;;;;26.80;14.80;;;1.50;91.50;;;;;;4967566;28;20215;-79
2021/01/26 04:44:54;;;;;;;28.03;15.40;;;1.40;91.40;;;;;;4974391;28;20272;-80
2021/01/26 04:47:25;;;;;;;28.03;15.60;;;1.40;91.30;;;;;;4979146;28;20543;-80
2021/01/26 04:50:01;;;;;;;29.27;15.60;;;1.40;91.30;;;;;;4983138;28;20222;-81
2021/01/26 04:52:54;;;;;;;22.40;13.20;;;1.40;91.30;;;;;;4975441;28;20200;-79
2021/01/26 04:55:34;;;;;;;24.93;14.10;;;1.40;91.40;;;;;;4940256;28;20228;-78
2021/01/26 04:58:20;;;;;;;18.60;11.10;;;1.40;91.30;;;;;;4963570;28;20310;-80
2021/01/26 05:00:59;;;;;;;25.47;14.67;;;1.40;91.30;;;;;;4972571;28;20200;-79
2021/01/26 05:03:48;;;;;;;24.87;14.27;;;1.50;91.30;;;;;;4966661;28;20291;-80
2021/01/26 05:06:19;;;;;;;30.37;15.73;;;1.30;91.30;;;;;;4982927;28;20567;-81
2021/01/26 05:08:51;;;;;;;24.60;14.47;;;1.30;91.40;;;;;;4965737;28;20207;-81
2021/01/26 05:11:25;;;;;;;26.47;15.37;;;1.30;91.40;;;;;;4953796;28;20288;-77
2021/01/26 05:13:58;;;;;;;27.80;16.00;;;1.30;91.40;;;;;;4967304;28;20210;-79
2021/01/26 05:16:32;;;;;;;30.37;16.67;;;1.40;91.40;;;;;;4951916;28;20241;-82
2021/01/26 05:19:06;;;;;;;26.43;14.97;;;1.30;91.40;;;;;;4977339;28;20199;-81
2021/01/26 05:21:40;;;;;;;29.73;16.20;;;1.40;91.40;;;;;;4972380;28;20536;-78
2021/01/26 05:24:16;;;;;;;26.70;15.70;;;1.40;91.20;;;;;;4985989;28;20205;-82
2021/01/26 05:26:43;;;;;;;25.63;13.87;;;1.40;91.20;;;;;;4976777;28;20209;-80
2021/01/26 05:29:13;;;;;;;25.93;15.27;;;1.40;91.20;;;;;;4964247;28;20204;-80
2021/01/26 05:31:46;;;;;;;25.27;14.43;;;1.30;91.20;;;;;;4976935;28;20204;-81
2021/01/26 05:34:16;;;;;;;26.90;14.63;;;1.30;91.30;;;;;;4975506;28;20678;-81
2021/01/26 05:36:46;;;;;;;27.20;15.30;;;1.30;91.30;;;;;;4956313;28;20243;-82
2021/01/26 05:39:19;;;;;;;26.73;15.77;;;1.30;91.30;;;;;;4981249;28;20208;-80
2021/01/26 05:41:47;;;;;;;28.37;17.27;;;1.30;91.20;;;;;;4969280;28;20215;-80
2021/01/26 05:44:17;;;;;;;26.30;15.93;;;1.30;91.20;;;;;;4977545;28;20216;-79
2021/01/26 05:46:47;;;;;;;25.93;16.70;;;1.30;91.30;;;;;;4985238;28;20295;-81
2021/01/26 05:49:33;;;;;;;31.77;17.03;;;1.30;91.30;;;;;;4987158;28;20184;-80
2021/01/26 05:52:02;;;;;;;24.43;14.77;;;1.30;91.40;;;;;;4998762;28;20207;-80
2021/01/26 05:54:32;;;;;;;28.27;17.33;;;1.30;91.40;;;;;;5001817;28;20184;-80
2021/01/26 05:57:01;;;;;;;24.80;16.00;;;1.30;91.30;;;;;;5001581;28;20219;-80
2021/01/26 05:59:31;;;;;;;29.20;16.60;;;1.30;91.30;;;;;;4985487;28;20414;-82
2021/01/26 06:02:13;;;;;;;26.93;15.17;;;1.30;91.50;;;;;;4969228;28;20203;-82
2021/01/26 06:04:42;;;;;;;28.27;16.37;;;1.30;91.40;;;;;;4991513;28;20473;-79
2021/01/26 06:07:19;;;;;;;26.53;14.47;;;1.30;91.30;;;;;;4992606;28;20200;-80
2021/01/26 06:09:48;;;;;;;28.27;16.57;;;1.40;91.30;;;;;;5002057;28;20212;-82
2021/01/26 06:12:19;;;;;;;26.27;14.83;;;1.30;91.20;;;;;;4989279;28;20397;-81
2021/01/26 06:15:00;;;;;;;21.93;12.87;;;1.30;91.10;;;;;;4977948;28;20296;-81
2021/01/26 06:17:30;;;;;;;21.60;14.30;;;1.30;90.80;;;;;;4982290;28;20219;-80
2021/01/26 06:20:15;;;;;;;21.97;13.00;;;1.30;90.60;;;;;;4975166;28;20212;-80
2021/01/26 06:22:43;;;;;;;25.50;15.30;;;1.30;90.70;;;;;;4978632;28;20211;-81
2021/01/26 06:25:18;;;;;;;27.17;15.77;;;1.20;90.70;;;;;;4965262;28;20205;-80
2021/01/26 06:28:16;;;;;;;22.40;14.40;;;1.20;90.80;;;;;;4950829;28;20337;-80
2021/01/26 06:30:53;;;;;;;24.40;11.33;;;1.30;90.70;;;;;;4970925;28;20217;-80
2021/01/26 06:34:06;;;;;;;25.40;14.47;;;1.20;90.70;;;;;;4975821;28;20460;-81
2021/01/26 06:37:03;;;;;;;24.37;14.53;;;1.20;90.60;;;;;;4984344;28;20242;-79
2021/01/26 06:40:06;;;;;;;24.03;14.73;;;1.20;90.70;;;;;;4973008;28;20673;-81
2021/01/26 06:42:48;;;;;;;24.47;14.63;;;1.30;90.70;;;;;;4969102;28;20793;-79
2021/01/26 06:45:21;;;;;;;23.93;14.30;;;1.30;90.60;;;;;;4965689;28;20295;-80
2021/01/26 06:48:22;;;;;;;23.70;13.90;;;1.30;90.60;;;;;;4972128;28;20208;-82
2021/01/26 06:51:29;;;;;;;24.23;15.07;;;1.30;90.50;;;;;;4972422;28;20307;-82
2021/01/26 06:54:11;;;;;;;24.40;14.20;;;1.30;90.60;;;;;;4968506;28;20207;-81
2021/01/26 06:57:08;;;;;;;21.70;13.83;;;1.30;90.70;;;;;;4970778;28;20310;-81
2021/01/26 07:00:04;;;;;;;22.30;14.13;;;1.30;90.50;;;;;;4973359;28;20558;-79
2021/01/26 07:03:07;;;;;;;22.03;11.53;;;1.30;90.20;;;;;;4964574;28;20742;-79
2021/01/26 07:06:02;;;;;;;22.50;12.50;;;1.20;90.10;;;;;;4968684;28;20242;-78
2021/01/26 07:09:03;;;;;;;20.77;12.67;;;1.30;90.30;;;;;;4970883;28;20662;-80
2021/01/26 07:12:06;;;;;;;20.50;13.17;;;1.30;90.30;;;;;;4974025;28;20319;-80
2021/01/26 07:14:54;;;;;;;23.73;13.73;;;1.30;90.50;;;;;;4973382;28;20214;-78
2021/01/26 07:17:34;;;;;;;24.43;14.73;;;1.30;90.60;;;;;;4966225;28;20251;-78
2021/01/26 07:20:11;;;;;;;24.27;13.97;;;1.30;90.70;;;;;;4970239;28;20796;-80
2021/01/26 07:23:03;;;;;;;21.47;12.77;;;1.30;90.60;;;;;;4974266;28;20219;-80
2021/01/26 07:25:46;;;;;;;22.07;12.77;;;1.30;90.50;;;;;;4970366;28;20304;-80
2021/01/26 07:29:03;;;;;;;22.10;13.03;;;1.30;90.30;;;;;;4968037;28;20212;-79
2021/01/26 07:31:37;;;;;;;21.00;13.00;;;1.30;90.30;;;;;;4924194;28;20212;-78
2021/01/26 07:34:16;;;;;;;21.47;11.87;;;1.30;90.20;;;;;;4971041;28;20207;-79
2021/01/26 07:36:51;;;;;;;21.03;12.73;;;1.30;90.00;;;;;;4967154;28;20223;-78
2021/01/26 07:39:27;;;;;;;20.60;12.20;;;1.40;90.00;;;;;;4975016;28;20192;-79
2021/01/26 07:42:03;;;;;;;20.87;12.07;;;1.40;90.00;;;;;;4986636;28;20216;-81
2021/01/26 07:44:39;;;;;;;23.87;12.43;;;1.40;90.00;;;;;;4983288;28;20659;-80
2021/01/26 07:47:14;;;;;;;22.37;12.13;;;1.30;89.70;;;;;;4980762;28;20214;-81
2021/01/26 07:49:51;;;;;;;22.10;12.17;;;1.40;89.50;;;;;;4971732;28;20698;-81
2021/01/26 07:52:21;;;;;;;23.37;12.90;;;1.40;89.80;;;;;;4967845;28;20203;-82
2021/01/26 07:55:01;;;;;;;21.97;10.30;;;1.30;89.40;;;;;;4968497;28;20251;-80
2021/01/26 07:57:37;;;;;;;21.07;11.87;;;1.40;89.00;;;;;;4980743;28;20468;-81
2021/01/26 08:00:06;;;;;;;18.37;11.17;;;1.50;89.20;;;;;;4978781;28;20208;-80
2021/01/26 08:02:49;;;;;;;18.67;12.13;;;1.50;88.90;;;;;;4978744;28;20510;-78
2021/01/26 08:05:19;;;;;;;18.87;11.13;;;1.50;89.00;;;;;;4976975;28;20675;-78
2021/01/26 08:07:49;;;;;;;19.40;11.10;;;1.50;88.70;;;;;;4974071;28;20196;-80
2021/01/26 08:10:20;;;;;;;22.77;13.07;;;1.50;89.20;;;;;;4971101;28;20227;-81
2021/01/26 08:12:50;;;;;;;18.77;12.70;;;1.50;89.60;;;;;;4976157;28;20262;-79
2021/01/26 08:15:24;;;;;;;22.47;13.80;;;1.50;89.70;;;;;;4971340;28;20208;-81
2021/01/26 08:17:51;;;;;;;23.50;14.17;;;1.40;89.50;;;;;;4969992;28;20227;-77
2021/01/26 08:20:29;;;;;;;25.33;14.23;;;1.40;89.70;;;;;;4972972;28;20204;-80
2021/01/26 08:23:01;;;;;;;25.60;13.37;;;1.40;90.00;;;;;;4978793;28;20231;-80
2021/01/26 08:25:31;;;;;;;22.73;12.23;;;1.30;90.00;;;;;;4968606;28;20197;-79
2021/01/26 08:28:03;;;;;;;26.87;14.03;;;1.60;89.80;;;;;;4970671;28;20702;-81
2021/01/26 08:31:02;;;;;;;29.30;14.90;;;1.50;90.00;;;;;;4968866;28;20275;-81
2021/01/26 08:33:33;;;;;;;26.83;14.07;;;1.50;89.80;;;;;;4945533;28;20205;-80
2021/01/26 08:36:32;;;;;;;27.30;15.33;;;1.50;89.90;;;;;;4947436;28;20238;-81
2021/01/26 08:39:06;;;;;;;26.90;14.23;;;1.50;89.80;;;;;;4964520;28;20600;-80
2021/01/26 08:41:46;;;;;;;27.43;14.00;;;1.60;89.90;;;;;;4966057;28;20219;-80
2021/01/26 08:44:47;;;;;;;23.77;14.40;;;1.60;89.60;;;;;;4969934;28;20215;-79
2021/01/26 08:47:41;;;;;;;27.30;14.10;;;1.60;89.30;;;;;;4895942;29;20347;-83
2021/01/26 08:50:13;;;;;;;23.93;13.30;;;1.70;89.30;;;;;;4973529;28;20753;-80
2021/01/26 08:52:40;;;;;;;24.70;14.13;;;1.70;89.30;;;;;;4977562;28;20206;-78
2021/01/26 08:55:09;;;;;;;22.37;14.17;;;1.70;89.60;;;;;;4968437;28;20444;-80
2021/01/26 08:57:43;;;;;;;28.47;14.07;;;1.70;89.30;;;;;;4967767;28;20232;-79
2021/01/26 09:00:40;;;;;;;23.23;13.20;;;1.80;88.90;;;;;;4987375;28;20274;-79
2021/01/26 09:03:35;;;;;;;25.50;13.00;;;1.80;89.20;;;;;;4983519;28;20212;-80
2021/01/26 09:06:06;;;;;;;25.97;13.83;;;1.90;88.70;;;;;;4985907;28;20235;-83
2021/01/26 09:08:49;;;;;;;22.33;12.70;;;1.90;88.80;;;;;;4996223;28;20201;-81
2021/01/26 09:11:22;;;;;;;24.60;13.03;;;2.10;88.90;;;;;;4982687;28;20223;-77
2021/01/26 09:13:52;;;;;;;21.03;11.70;;;2.10;88.70;;;;;;4976251;28;20719;-82
2021/01/26 09:16:25;;;;;;;21.37;11.17;;;2.20;88.10;;;;;;4979639;28;20200;-81
2021/01/26 09:18:54;;;;;;;24.23;12.07;;;2.10;87.80;;;;;;4984493;28;20200;-80
2021/01/26 09:21:22;;;;;;;23.73;12.00;;;2.20;88.10;;;;;;4977333;28;20197;-80
2021/01/26 09:23:53;;;;;;;18.50;11.00;;;2.20;87.90;;;;;;4979626;28;20798;-78
2021/01/26 09:26:25;;;;;;;23.03;12.33;;;2.20;87.60;;;;;;4977504;28;20215;-81
2021/01/26 09:28:53;;;;;;;23.63;12.63;;;2.20;87.70;;;;;;4977485;28;20201;-81
2021/01/26 09:31:25;;;;;;;24.07;11.93;;;2.20;87.80;;;;;;4979607;28;20196;-81
2021/01/26 09:34:08;;;;;;;22.30;12.30;;;2.30;87.70;;;;;;4977144;28;20466;-81
2021/01/26 09:36:36;;;;;;;20.13;12.10;;;2.40;87.60;;;;;;4974608;28;20300;-81
2021/01/26 09:39:07;;;;;;;22.00;11.57;;;2.50;87.30;;;;;;4970226;28;20206;-78
2021/01/26 09:41:36;;;;;;;22.17;12.30;;;2.50;87.00;;;;;;4975563;28;20210;-81
2021/01/26 09:44:07;;;;;;;25.10;13.33;;;2.50;87.20;;;;;;4980356;28;20231;-76
2021/01/26 09:46:38;;;;;;;23.00;13.23;;;2.50;87.50;;;;;;4970680;28;20201;-77
2021/01/26 09:49:14;;;;;;;18.93;11.83;;;2.60;87.80;;;;;;4982367;28;20225;-81
2021/01/26 09:51:47;;;;;;;27.90;15.23;;;2.60;87.10;;;;;;4972371;28;20213;-81
2021/01/26 09:54:17;;;;;;;20.83;12.67;;;2.60;87.20;;;;;;4974437;28;20616;-81
2021/01/26 09:56:46;;;;;;;24.63;13.23;;;2.60;87.00;;;;;;4969828;28;20235;-79
2021/01/26 09:59:15;;;;;;;23.77;12.37;;;2.50;87.40;;;;;;4975263;28;20550;-78
2021/01/26 10:01:46;;;;;;;28.33;13.50;;;2.60;87.50;;;;;;4975640;28;20204;-82
2021/01/26 10:04:16;;;;;;;24.77;14.07;;;2.70;87.70;;;;;;4977790;28;20451;-78
2021/01/26 10:06:45;;;;;;;25.03;13.77;;;2.50;87.80;;;;;;4965776;28;20202;-82
2021/01/26 10:09:22;;;;;;;24.30;13.73;;;2.60;87.20;;;;;;4963783;28;20470;-81
2021/01/26 10:11:51;;;;;;;24.37;12.87;;;2.60;87.80;;;;;;4968870;28;20208;-77
2021/01/26 10:14:24;;;;;;;24.70;12.43;;;2.60;87.20;;;;;;4981577;28;20208;-79
2021/01/26 10:16:54;;;;;;;24.27;14.03;;;2.60;87.70;;;;;;4971726;28;20509;-79
2021/01/26 10:19:25;;;;;;;29.63;14.83;;;2.80;87.80;;;;;;4980899;28;20311;-78
2021/01/26 10:21:54;;;;;;;22.03;12.63;;;2.60;87.70;;;;;;4971080;28;20215;-80
2021/01/26 10:24:27;;;;;;;25.13;14.53;;;2.60;87.80;;;;;;4970775;28;20202;-79
2021/01/26 10:27:07;;;;;;;25.40;13.50;;;2.60;87.60;;;;;;4977829;28;20200;-80
2021/01/26 10:29:38;;;;;;;21.40;13.67;;;2.60;87.70;;;;;;4977180;28;20213;-80
2021/01/26 10:32:08;;;;;;;22.80;11.97;;;2.80;87.50;;;;;;4976864;28;20560;-79
2021/01/26 10:34:40;;;;;;;24.17;12.33;;;2.80;87.00;;;;;;4987286;28;20217;-78
2021/01/26 10:37:14;;;;;;;23.17;12.50;;;2.80;86.90;;;;;;4982838;28;20338;-79
2021/01/26 10:39:44;;;;;;;17.73;11.17;;;2.80;87.00;;;;;;4971954;28;20222;-81
2021/01/26 10:42:18;;;;;;;18.83;11.13;;;3.00;86.00;;;;;;4973648;28;20554;-77
2021/01/26 10:44:50;;;;;;;19.33;11.53;;;2.90;86.30;;;;;;4973347;28;20220;-78
2021/01/26 10:47:28;;;;;;;17.70;11.17;;;2.90;86.30;;;;;;4966987;28;20826;-80
2021/01/26 10:49:59;;;;;;;17.83;10.73;;;2.90;86.20;;;;;;4975598;28;20692;-77
2021/01/26 10:52:40;;;;;;;22.87;12.40;;;2.80;86.40;;;;;;4971531;28;20206;-76
2021/01/26 10:55:11;;;;;;;19.27;10.60;;;2.70;86.60;;;;;;4973802;28;20213;-79
2021/01/26 10:57:40;;;;;;;18.57;11.70;;;2.70;86.60;;;;;;4957332;28;20299;-80
2021/01/26 11:00:11;;;;;;;21.50;13.03;;;2.60;86.90;;;;;;4982677;28;20210;-78
2021/01/26 11:02:42;;;;;;;22.90;13.47;;;2.60;86.80;;;;;;4982762;28;20677;-80
2021/01/26 11:05:12;;;;;;;19.03;12.33;;;2.50;87.20;;;;;;4973464;28;20221;-77
2021/01/26 11:07:40;;;;;;;29.70;14.47;;;2.50;87.50;;;;;;4981516;28;20200;-79
2021/01/26 11:10:09;;;;;;;22.70;12.50;;;2.50;87.50;;;;;;4969792;28;20297;-79
2021/01/26 11:12:38;;;;;;;21.93;12.67;;;2.50;87.60;;;;;;4978768;28;20200;-78
2021/01/26 11:15:09;;;;;;;22.20;13.10;;;2.40;87.80;;;;;;4974882;28;20208;-80
2021/01/26 11:17:39;;;;;;;24.67;13.37;;;2.30;88.00;;;;;;4960905;28;20227;-78
2021/01/26 11:20:09;;;;;;;22.97;13.13;;;2.30;88.70;;;;;;4977907;28;20241;-78
2021/01/26 11:22:37;;;;;;;25.37;14.57;;;2.30;88.40;;;;;;4985467;28;20182;-79
2021/01/26 11:25:07;;;;;;;25.20;13.60;;;2.40;88.20;;;;;;4972667;28;20690;-79
2021/01/26 11:27:35;;;;;;;22.70;13.20;;;2.40;88.40;;;;;;4975362;28;20203;-80
2021/01/26 11:30:05;;;;;;;23.43;13.37;;;2.50;88.70;;;;;;4977336;28;20344;-79
2021/01/26 11:32:37;;;;;;;21.70;13.80;;;2.60;88.20;;;;;;4976671;28;20205;-80
2021/01/26 11:35:11;;;;;;;21.57;11.93;;;2.60;87.90;;;;;;4983297;28;20882;-79
2021/01/26 11:37:39;;;;;;;24.60;13.57;;;2.70;87.50;;;;;;4996686;28;20292;-80
2021/01/26 11:40:08;;;;;;;22.57;14.07;;;2.80;87.50;;;;;;5006795;28;20219;-81
2021/01/26 11:42:37;;;;;;;22.47;13.70;;;2.80;87.50;;;;;;4992864;28;20217;-78
2021/01/26 11:45:08;;;;;;;21.63;12.90;;;2.70;88.00;;;;;;4986332;28;20217;-80
2021/01/26 11:47:36;;;;;;;24.60;13.83;;;2.80;87.90;;;;;;4990703;28;20210;-81
2021/01/26 11:50:08;;;;;;;23.83;13.97;;;2.80;88.00;;;;;;4993813;28;20604;-78
2021/01/26 11:52:37;;;;;;;24.63;13.50;;;2.70;87.80;;;;;;4996363;28;20480;-79
2021/01/26 11:55:08;;;;;;;24.07;14.03;;;2.70;88.00;;;;;;4989059;28;20266;-77
2021/01/26 11:57:37;;;;;;;24.23;14.00;;;2.70;87.60;;;;;;4980585;28;20226;-81
2021/01/26 12:00:12;;;;;;;23.50;14.57;;;2.60;88.10;;;;;;4982055;28;20208;-79
2021/01/26 12:02:39;;;;;;;24.00;13.73;;;2.60;87.90;;;;;;4965395;28;20578;-80
2021/01/26 12:05:13;;;;;;;21.80;13.10;;;2.60;88.20;;;;;;4984915;28;20211;-80
2021/01/26 12:07:41;;;;;;;22.67;12.97;;;2.50;87.80;;;;;;4978149;28;20221;-80
2021/01/26 12:10:10;;;;;;;23.17;13.83;;;2.50;87.80;;;;;;4970574;28;20217;-81
2021/01/26 12:12:38;;;;;;;28.67;14.47;;;2.50;88.00;;;;;;4972681;28;20297;-81
2021/01/26 12:15:09;;;;;;;23.83;12.90;;;2.50;88.00;;;;;;4973683;28;20205;-81
2021/01/26 12:17:37;;;;;;;26.37;14.20;;;2.50;88.20;;;;;;4975383;28;20621;-79
2021/01/26 12:20:07;;;;;;;22.23;12.87;;;2.50;88.20;;;;;;4977469;28;20241;-80
2021/01/26 12:22:36;;;;;;;24.23;14.07;;;2.60;88.30;;;;;;4977958;28;20206;-79
2021/01/26 12:25:04;;;;;;;21.40;13.40;;;2.50;87.90;;;;;;4975412;28;20247;-79
2021/01/26 12:27:34;;;;;;;23.87;14.03;;;2.60;88.00;;;;;;4974629;28;20236;-81
2021/01/26 12:30:27;;;;;;;22.67;13.47;;;2.40;88.30;;;;;;4978496;28;20212;-78
2021/01/26 12:33:05;;;;;;;22.50;13.13;;;2.40;88.60;;;;;;4974516;28;20243;-82
2021/01/26 12:35:49;;;;;;;23.43;13.27;;;2.30;88.90;;;;;;4966457;28;20204;-81
2021/01/26 12:38:23;;;;;;;20.40;12.30;;;2.30;89.00;;;;;;4951404;28;20236;-81
2021/01/26 12:40:51;;;;;;;24.53;13.90;;;2.30;88.90;;;;;;4968090;28;20198;-82
2021/01/26 12:43:19;;;;;;;22.53;13.43;;;2.30;88.80;;;;;;4972751;28;20199;-80
2021/01/26 12:46:02;;;;;;;24.97;14.07;;;2.30;89.20;;;;;;4966688;28;20202;-82
2021/01/26 12:48:30;;;;;;;21.93;13.17;;;2.30;88.70;;;;;;4958728;28;20208;-83
2021/01/26 12:50:59;;;;;;;23.90;13.20;;;2.40;89.20;;;;;;4967592;28;20200;-80
2021/01/26 12:53:27;;;;;;;22.50;12.67;;;2.30;88.70;;;;;;4977786;28;20196;-79
2021/01/26 12:55:56;;;;;;;27.83;13.83;;;2.30;89.20;;;;;;4966241;28;20455;-81
2021/01/26 12:58:24;;;;;;;27.17;14.67;;;2.30;88.50;;;;;;4972281;28;20224;-80
2021/01/26 13:00:52;;;;;;;24.90;13.07;;;2.30;88.80;;;;;;4962294;28;21085;-81
2021/01/26 13:03:20;;;;;;;24.03;14.30;;;2.30;88.90;;;;;;4954963;28;20201;-79
2021/01/26 13:05:49;;;;;;;26.83;14.23;;;2.30;88.80;;;;;;4970943;28;20645;-80
2021/01/26 13:08:17;;;;;;;21.07;14.20;;;2.30;89.10;;;;;;4979442;28;20208;-79
2021/01/26 13:10:48;;;;;;;25.07;14.33;;;2.30;89.00;;;;;;4974335;28;20243;-80
2021/01/26 13:13:15;;;;;;;25.33;14.60;;;2.30;89.30;;;;;;4959659;28;20391;-81
2021/01/26 13:15:43;;;;;;;26.43;15.13;;;2.20;89.20;;;;;;4966620;28;20623;-81
2021/01/26 13:18:14;;;;;;;25.10;14.80;;;2.20;89.20;;;;;;4969840;28;20224;-80